Rota, Northern Mariana Islands
Current Conditions -  °F | °C
As of 7:50 PM on Wednesday 26 Nov 2014 (Local Time) from PGRO Reporting Station
Scattered Clouds Scattered Clouds  
Wind Chill: 79°   Ceiling: Unl
Heat Index: 82°   Visibility: 7mi
Dew Point: 73°   Wind: 9mph
Humidity: 83%   Direction: 70°ENE
Pressure: 29.88"   Gusts: NA
Location:  14.14°N, 145.14°E
Report Text: PGRO 260950Z 07008KT 7SM SCT025 26/23 A2988 RMK LAST
Loading
Personal Weather Stations






























Interactive Weather Map New forecast layout! Learn more

10-Day Weather Forecast

Advertisements
Track Severe Weather on mobile